Barnhart Town, Indiana
Current Conditions -  °F | °C
As of 11:53 AM on Tuesday 27 Jan 2015 (Local Time) from KHUF Reporting Station
Overcast Overcast  
Wind Chill: 25°   Ceiling: 900
Heat Index: 31°   Visibility: 9mi
Dew Point: 27°   Wind: 6mph
Humidity: 85%   Direction: 360°N
Pressure: 30.13"   Gusts: NA
Location:  39.5107°N, 87.4772°W
Report Text: KHUF 271653Z 36005KT 9SM OVC009 M01/M03 A3013 RMK AO2 CIG 008V013 SLP208 T10061028
Loading
Personal Weather Stations






























Interactive Weather Map New forecast layout! Learn more

10-Day Weather Forecast

Advertisements
Track Severe Weather on mobile